createdAt,value
2023-05-10T00:01:19.283Z,19.20
2023-05-10T00:03:46.307Z,19.20
2023-05-10T00:06:13.101Z,19.10
2023-05-10T00:08:39.730Z,19.20
2023-05-10T00:11:06.369Z,19.20
2023-05-10T00:13:33.119Z,19.20
2023-05-10T00:15:59.855Z,19.20
2023-05-10T00:18:26.716Z,19.20
2023-05-10T00:20:53.375Z,19.10
2023-05-10T00:23:20.032Z,19.00
2023-05-10T00:25:46.702Z,18.90
2023-05-10T00:28:13.286Z,18.90
2023-05-10T00:30:39.925Z,18.80
2023-05-10T00:33:06.552Z,18.70
2023-05-10T00:35:33.341Z,18.70
2023-05-10T00:37:59.988Z,18.70
2023-05-10T00:40:26.739Z,18.70
2023-05-10T00:42:53.374Z,18.70
2023-05-10T00:45:20.253Z,18.50
2023-05-10T00:47:47.088Z,18.50
2023-05-10T00:50:15.388Z,18.50
2023-05-10T00:52:43.140Z,18.50
2023-05-10T00:55:12.359Z,18.50
2023-05-10T00:57:39.441Z,18.50
2023-05-10T01:00:06.783Z,18.40
2023-05-10T01:02:35.220Z,18.40
2023-05-10T01:05:04.744Z,18.40
2023-05-10T01:07:31.725Z,18.40
2023-05-10T01:09:58.941Z,18.40
2023-05-10T01:12:26.290Z,18.30
2023-05-10T01:14:53.264Z,18.30
2023-05-10T01:17:21.796Z,18.30
2023-05-10T01:19:48.678Z,18.30
2023-05-10T01:22:31.994Z,18.30
2023-05-10T01:25:04.270Z,18.40
2023-05-10T01:27:30.851Z,18.40
2023-05-10T01:30:47.477Z,18.40
2023-05-10T01:33:16.891Z,18.40
2023-05-10T01:36:00.138Z,18.30
2023-05-10T01:38:32.362Z,18.30
2023-05-10T01:41:08.024Z,18.30
2023-05-10T01:43:43.737Z,18.30
2023-05-10T01:46:20.746Z,18.30
2023-05-10T01:48:55.011Z,18.30
2023-05-10T01:51:26.350Z,18.40
2023-05-10T01:53:59.904Z,18.30
2023-05-10T01:56:28.998Z,18.30
2023-05-10T01:58:57.356Z,18.20
2023-05-10T02:01:27.032Z,18.20
2023-05-10T02:03:55.987Z,18.20
2023-05-10T02:06:24.681Z,18.10
2023-05-10T02:08:53.064Z,18.20
2023-05-10T02:11:21.886Z,18.30
2023-05-10T02:13:51.326Z,18.40
2023-05-10T02:16:19.158Z,18.50
2023-05-10T02:18:47.847Z,18.50
2023-05-10T02:21:16.307Z,18.70
2023-05-10T02:23:44.209Z,18.60
2023-05-10T02:26:12.902Z,18.60
2023-05-10T02:28:41.297Z,18.70
2023-05-10T02:31:10.727Z,18.70
2023-05-10T02:33:40.313Z,18.70
2023-05-10T02:36:09.267Z,18.70
2023-05-10T02:38:37.537Z,18.70
2023-05-10T02:41:06.673Z,18.50
2023-05-10T02:43:34.716Z,18.50
2023-05-10T02:46:01.577Z,18.40
2023-05-10T02:48:28.729Z,18.20
2023-05-10T02:51:01.455Z,18.00
2023-05-10T02:53:36.384Z,17.70
2023-05-10T02:56:10.687Z,17.40
2023-05-10T02:58:37.308Z,17.30
2023-05-10T03:01:04.248Z,17.00
2023-05-10T03:03:30.879Z,16.80
2023-05-10T03:05:58.860Z,16.60
2023-05-10T03:08:25.866Z,16.40
2023-05-10T03:11:11.393Z,16.20
2023-05-10T03:13:57.603Z,16.00
2023-05-10T03:16:31.249Z,15.90
2023-05-10T03:19:12.743Z,15.80
2023-05-10T03:21:43.075Z,15.80
2023-05-10T03:24:13.259Z,15.80
2023-05-10T03:26:41.066Z,15.70
2023-05-10T03:29:08.881Z,15.70
2023-05-10T03:31:35.592Z,15.60
2023-05-10T03:34:02.287Z,15.60
2023-05-10T03:36:29.075Z,15.50
2023-05-10T03:38:55.792Z,15.60
2023-05-10T03:41:22.580Z,15.40
2023-05-10T03:43:49.250Z,15.30
2023-05-10T03:46:15.883Z,15.20
2023-05-10T03:48:42.586Z,15.10
2023-05-10T03:51:09.337Z,15.00
2023-05-10T03:53:36.487Z,15.00
2023-05-10T03:56:03.196Z,14.90
2023-05-10T03:58:29.844Z,14.90
2023-05-10T04:00:56.912Z,14.90
2023-05-10T04:03:24.057Z,15.00
2023-05-10T04:06:02.797Z,14.80
2023-05-10T04:08:30.020Z,14.80
2023-05-10T04:11:06.684Z,14.60
2023-05-10T04:13:33.725Z,14.60
2023-05-10T04:16:00.542Z,14.70
2023-05-10T04:18:27.348Z,14.70
2023-05-10T04:20:54.055Z,14.60
2023-05-10T04:23:20.652Z,14.50
2023-05-10T04:25:47.305Z,14.50
2023-05-10T04:28:13.977Z,14.40
2023-05-10T04:30:41.402Z,14.40
2023-05-10T04:33:08.183Z,14.20
2023-05-10T04:35:36.145Z,14.20
2023-05-10T04:38:02.734Z,14.20
2023-05-10T04:40:29.434Z,14.20
2023-05-10T04:42:56.029Z,14.20
2023-05-10T04:45:23.187Z,14.30
2023-05-10T04:47:49.825Z,14.30
2023-05-10T04:50:16.932Z,14.40
2023-05-10T04:52:43.663Z,14.30
2023-05-10T04:55:10.986Z,14.30
2023-05-10T04:57:40.549Z,14.20
2023-05-10T05:00:07.868Z,14.10
2023-05-10T05:02:34.533Z,14.10
2023-05-10T05:05:01.304Z,14.20
2023-05-10T05:07:28.034Z,14.20
2023-05-10T05:09:54.620Z,14.10
2023-05-10T05:12:21.228Z,14.20
2023-05-10T05:14:50.804Z,14.20
2023-05-10T05:17:17.469Z,14.30
2023-05-10T05:19:44.045Z,14.30
2023-05-10T05:22:10.815Z,14.20
2023-05-10T05:24:40.651Z,14.20
2023-05-10T05:27:07.844Z,14.10
2023-05-10T05:29:34.661Z,14.10
2023-05-10T05:32:01.402Z,14.20
2023-05-10T05:34:28.140Z,14.10
2023-05-10T05:36:55.048Z,14.10
2023-05-10T05:39:21.722Z,14.10
2023-05-10T05:41:48.365Z,14.20
2023-05-10T05:44:15.036Z,14.20
2023-05-10T05:46:41.722Z,14.20
2023-05-10T05:49:08.322Z,14.30
2023-05-10T05:51:36.497Z,14.30
2023-05-10T05:54:05.128Z,14.20
2023-05-10T05:56:31.810Z,14.20
2023-05-10T05:58:58.464Z,14.20
2023-05-10T06:01:25.085Z,14.10
2023-05-10T06:03:53.327Z,14.20
2023-05-10T06:06:20.318Z,14.20
2023-05-10T06:08:46.957Z,14.20
2023-05-10T06:11:13.552Z,14.30
2023-05-10T06:13:40.266Z,14.40
2023-05-10T06:16:07.378Z,14.40
2023-05-10T06:18:34.121Z,14.30
2023-05-10T06:21:00.928Z,14.30
2023-05-10T06:23:27.560Z,14.40
2023-05-10T06:25:54.245Z,14.30
2023-05-10T06:28:21.026Z,14.30
2023-05-10T06:30:47.684Z,14.30
2023-05-10T06:33:14.529Z,14.40
2023-05-10T06:35:41.268Z,14.50
2023-05-10T06:38:07.901Z,14.60
2023-05-10T06:40:34.718Z,14.60
2023-05-10T06:43:01.370Z,14.60
2023-05-10T06:45:27.963Z,14.60
2023-05-10T06:47:54.645Z,14.70
2023-05-10T06:50:21.361Z,14.90
2023-05-10T06:52:48.257Z,14.80
2023-05-10T06:55:15.112Z,14.80
2023-05-10T06:57:42.172Z,14.80
2023-05-10T07:00:10.758Z,14.80
2023-05-10T07:02:37.680Z,14.80
2023-05-10T07:05:04.576Z,14.90
2023-05-10T07:07:31.271Z,14.80
2023-05-10T07:09:58.613Z,14.80
2023-05-10T07:12:25.868Z,14.90
2023-05-10T07:14:52.596Z,15.00
2023-05-10T07:17:19.536Z,15.00
2023-05-10T07:19:46.260Z,15.10
2023-05-10T07:22:13.136Z,15.00
2023-05-10T07:24:39.769Z,15.00
2023-05-10T07:27:06.536Z,15.10
2023-05-10T07:29:33.608Z,15.00
2023-05-10T07:32:00.543Z,14.90
2023-05-10T07:34:27.232Z,14.90
2023-05-10T07:36:53.981Z,14.80
2023-05-10T07:39:27.026Z,14.80
2023-05-10T07:41:55.290Z,14.90
2023-05-10T07:44:21.926Z,14.90
2023-05-10T07:46:49.485Z,14.90
2023-05-10T07:49:16.262Z,15.00
2023-05-10T07:51:43.502Z,15.00
2023-05-10T07:54:10.375Z,14.90
2023-05-10T07:56:37.034Z,15.00
2023-05-10T07:59:05.961Z,15.00
2023-05-10T08:01:34.076Z,15.10
2023-05-10T08:04:01.819Z,15.20
2023-05-10T08:06:30.690Z,15.30
2023-05-10T08:08:57.591Z,15.30
2023-05-10T08:11:24.356Z,15.30
2023-05-10T08:13:51.952Z,15.40
2023-05-10T08:16:18.897Z,15.30
2023-05-10T08:18:47.638Z,15.30
2023-05-10T08:21:15.492Z,15.40
2023-05-10T08:23:42.271Z,15.50
2023-05-10T08:26:09.016Z,15.60
2023-05-10T08:28:35.773Z,15.80
2023-05-10T08:31:02.393Z,15.90
2023-05-10T08:33:29.031Z,15.80
2023-05-10T08:35:55.717Z,15.90
2023-05-10T08:38:22.334Z,15.80
2023-05-10T08:40:51.702Z,15.80
2023-05-10T08:43:18.918Z,15.70
2023-05-10T08:59:16.949Z,15.70
2023-05-10T09:01:45.778Z,15.20
2023-05-10T09:04:13.467Z,14.80
2023-05-10T09:06:40.618Z,14.50
2023-05-10T09:09:07.832Z,14.40
2023-05-10T09:11:34.895Z,14.40
2023-05-10T09:14:02.590Z,14.50
2023-05-10T09:16:29.447Z,14.50
2023-05-10T09:18:56.204Z,14.60
2023-05-10T09:21:23.016Z,14.70
2023-05-10T09:23:51.017Z,14.90
2023-05-10T09:26:18.430Z,15.00
2023-05-10T09:28:52.306Z,15.20
2023-05-10T09:31:19.489Z,15.40
2023-05-10T09:33:47.182Z,15.50
2023-05-10T09:36:14.295Z,15.70
2023-05-10T09:38:48.829Z,15.90
2023-05-10T09:41:23.955Z,16.10
2023-05-10T09:43:53.369Z,16.20
2023-05-10T09:46:20.087Z,16.30
2023-05-10T09:48:48.514Z,16.40
2023-05-10T09:51:25.799Z,16.50
2023-05-10T09:54:16.824Z,16.60
2023-05-10T09:56:43.818Z,16.50
2023-05-10T09:59:12.418Z,16.40
2023-05-10T10:01:39.847Z,16.30
2023-05-10T10:04:08.797Z,16.40
2023-05-10T10:06:40.188Z,16.70
2023-05-10T10:09:09.062Z,16.80
2023-05-10T10:11:37.447Z,16.90
2023-05-10T10:14:04.094Z,17.00
2023-05-10T10:16:31.399Z,16.90
2023-05-10T10:18:58.745Z,16.90
2023-05-10T10:21:25.973Z,16.90
2023-05-10T10:23:53.883Z,17.00
2023-05-10T10:26:22.155Z,17.20
2023-05-10T10:29:20.535Z,17.30
2023-05-10T10:32:10.165Z,17.40
2023-05-10T10:34:37.845Z,17.30
2023-05-10T10:37:07.619Z,17.10
2023-05-10T10:39:37.342Z,16.90
2023-05-10T10:42:05.097Z,16.80
2023-05-10T10:44:33.004Z,16.70
2023-05-10T10:47:03.340Z,16.70
2023-05-10T10:49:52.921Z,16.70
2023-05-10T10:52:37.342Z,16.70
2023-05-10T10:55:23.403Z,16.50
2023-05-10T10:57:52.577Z,16.50
2023-05-10T11:00:33.288Z,16.50
2023-05-10T11:03:09.537Z,16.60
2023-05-10T11:05:40.503Z,16.50
2023-05-10T11:08:27.360Z,16.50
2023-05-10T11:10:59.761Z,16.50
2023-05-10T11:13:35.410Z,16.50
2023-05-10T11:16:14.205Z,16.50
2023-05-10T11:18:41.585Z,16.60
2023-05-10T11:21:11.500Z,16.60
2023-05-10T11:23:41.265Z,16.60
2023-05-10T11:26:12.004Z,16.70
2023-05-10T11:28:49.163Z,16.70
2023-05-10T11:31:17.515Z,16.70
2023-05-10T11:33:49.157Z,16.70
2023-05-10T11:36:18.822Z,16.70
2023-05-10T11:38:46.310Z,16.80
2023-05-10T11:41:13.817Z,16.80
2023-05-10T11:43:41.569Z,16.80
2023-05-10T11:46:13.170Z,16.80
2023-05-10T11:48:41.086Z,16.90
2023-05-10T11:51:11.730Z,17.00
2023-05-10T11:53:39.051Z,16.90
2023-05-10T11:56:10.116Z,16.90
2023-05-10T11:58:38.624Z,16.90
2023-05-10T12:01:07.378Z,16.80
2023-05-10T12:03:35.042Z,16.70
2023-05-10T12:06:02.459Z,16.70
2023-05-10T12:08:30.939Z,16.70
2023-05-10T12:11:11.412Z,16.70
2023-05-10T12:13:43.274Z,16.80
2023-05-10T12:16:20.180Z,16.90
2023-05-10T12:18:49.885Z,17.10
2023-05-10T12:21:16.746Z,17.20
2023-05-10T12:23:45.945Z,17.30
2023-05-10T12:26:12.718Z,17.40
2023-05-10T12:28:40.493Z,17.40
2023-05-10T12:31:07.841Z,17.40
2023-05-10T12:33:46.270Z,17.50
2023-05-10T12:36:15.318Z,17.60
2023-05-10T12:38:44.320Z,17.60
2023-05-10T12:41:19.208Z,17.70
2023-05-10T12:43:49.121Z,17.70
2023-05-10T12:46:18.449Z,17.40
2023-05-10T12:48:47.150Z,17.40
2023-05-10T12:51:16.466Z,17.50
2023-05-10T12:53:45.643Z,17.50
2023-05-10T12:56:13.386Z,17.50
2023-05-10T12:58:40.096Z,17.40
2023-05-10T13:01:07.071Z,17.30
2023-05-10T13:03:33.834Z,17.00
2023-05-10T13:06:00.623Z,17.10
2023-05-10T13:08:27.368Z,17.20
2023-05-10T13:10:54.185Z,17.20
2023-05-10T13:13:20.943Z,17.30
2023-05-10T13:15:47.526Z,17.50
2023-05-10T13:18:14.477Z,17.60
2023-05-10T13:20:41.229Z,17.50
2023-05-10T13:23:07.871Z,17.40
2023-05-10T13:25:35.337Z,17.40
2023-05-10T13:28:02.149Z,17.60
2023-05-10T13:30:29.725Z,17.80
2023-05-10T13:32:56.380Z,18.00
2023-05-10T13:35:23.309Z,18.00
2023-05-10T13:37:50.281Z,18.10
2023-05-10T13:40:17.923Z,18.30
2023-05-10T13:42:44.765Z,18.40
2023-05-10T13:45:14.001Z,18.50
2023-05-10T13:47:40.789Z,18.50
2023-05-10T13:50:08.143Z,18.50
2023-05-10T13:52:34.896Z,18.40
2023-05-10T13:55:01.571Z,18.20
2023-05-10T13:57:29.751Z,18.10
2023-05-10T13:59:58.266Z,18.00
2023-05-10T14:02:25.655Z,18.10
2023-05-10T14:04:52.663Z,18.00
2023-05-10T14:07:19.450Z,18.00
2023-05-10T14:09:46.112Z,17.90
2023-05-10T14:12:12.802Z,17.90
2023-05-10T14:14:39.914Z,17.80
2023-05-10T14:17:06.741Z,17.70
2023-05-10T14:19:34.843Z,17.70
2023-05-10T14:22:01.450Z,17.60
2023-05-10T14:24:28.194Z,17.60
2023-05-10T14:26:54.953Z,17.70
2023-05-10T14:29:22.198Z,17.70
2023-05-10T14:31:48.864Z,17.70
2023-05-10T14:34:15.797Z,17.70
2023-05-10T14:36:42.418Z,17.80
2023-05-10T14:39:10.988Z,17.80
2023-05-10T14:41:38.077Z,17.60
2023-05-10T14:44:04.768Z,17.50
2023-05-10T14:46:31.987Z,17.40
2023-05-10T14:48:58.738Z,17.40
2023-05-10T14:51:25.368Z,17.40
2023-05-10T14:53:52.065Z,17.40
2023-05-10T14:56:18.716Z,17.30
2023-05-10T14:58:45.341Z,17.30
2023-05-10T15:01:12.079Z,17.20
2023-05-10T15:03:39.218Z,17.10
2023-05-10T15:06:06.718Z,17.10
2023-05-10T15:08:33.416Z,16.90
2023-05-10T15:11:00.081Z,16.70
2023-05-10T15:13:26.811Z,16.50
2023-05-10T15:15:53.572Z,16.30
2023-05-10T15:18:20.409Z,16.10
2023-05-10T15:20:47.058Z,16.00
2023-05-10T15:23:13.790Z,16.00
2023-05-10T15:25:40.540Z,16.00
2023-05-10T15:28:07.386Z,16.10
2023-05-10T15:30:34.053Z,16.10
2023-05-10T15:33:00.745Z,16.00
2023-05-10T15:35:28.412Z,15.90
2023-05-10T15:37:55.161Z,15.90
2023-05-10T15:40:21.968Z,15.80
2023-05-10T15:42:48.741Z,15.80
2023-05-10T15:45:16.366Z,15.90
2023-05-10T15:47:43.300Z,15.90
2023-05-10T15:50:10.569Z,15.90
2023-05-10T15:52:37.208Z,15.90
2023-05-10T15:55:04.143Z,15.90
2023-05-10T15:57:31.087Z,16.10
2023-05-10T15:59:58.167Z,16.20
2023-05-10T16:02:24.977Z,16.20
2023-05-10T16:04:51.791Z,16.20
2023-05-10T16:07:18.430Z,16.10
2023-05-10T16:09:45.071Z,16.10
2023-05-10T16:12:11.764Z,16.00
2023-05-10T16:14:39.816Z,16.00
2023-05-10T16:17:07.593Z,16.00
2023-05-10T16:19:34.401Z,16.10
2023-05-10T16:22:01.123Z,16.00
2023-05-10T16:24:27.812Z,15.90
2023-05-10T16:26:54.484Z,15.90
2023-05-10T16:29:21.127Z,15.80
2023-05-10T16:31:47.826Z,15.80
2023-05-10T16:34:14.475Z,15.70
2023-05-10T16:36:41.197Z,15.70
2023-05-10T16:39:09.324Z,15.70
2023-05-10T16:41:36.030Z,15.80
2023-05-10T16:44:03.676Z,15.70
2023-05-10T16:46:30.426Z,15.80
2023-05-10T16:48:57.610Z,15.80
2023-05-10T16:51:24.241Z,15.80
2023-05-10T16:53:50.889Z,15.90
2023-05-10T16:56:22.166Z,15.90
2023-05-10T16:58:51.990Z,15.90
2023-05-10T17:01:18.757Z,16.00
2023-05-10T17:03:45.632Z,15.90
2023-05-10T17:06:12.594Z,15.80
2023-05-10T17:08:39.665Z,15.60
2023-05-10T17:11:06.311Z,15.50
2023-05-10T17:13:32.922Z,15.60
2023-05-10T17:16:03.532Z,15.50
2023-05-10T17:18:31.974Z,15.50
2023-05-10T17:20:58.659Z,15.40
2023-05-10T17:23:25.288Z,15.50
2023-05-10T17:25:51.932Z,15.50
2023-05-10T17:28:18.571Z,15.50
2023-05-10T17:30:45.267Z,15.40
2023-05-10T17:33:11.941Z,15.40
2023-05-10T17:35:38.652Z,15.40
2023-05-10T17:38:05.373Z,15.40
2023-05-10T17:40:32.213Z,15.40
2023-05-10T17:42:58.839Z,15.40
2023-05-10T17:45:26.198Z,15.30
2023-05-10T17:47:52.954Z,15.40
2023-05-10T17:50:19.925Z,15.40
2023-05-10T17:52:46.787Z,15.40
2023-05-10T17:55:15.362Z,15.40
2023-05-10T17:57:42.202Z,15.30
2023-05-10T18:00:10.072Z,15.30
2023-05-10T18:02:37.257Z,15.30
2023-05-10T18:05:04.667Z,15.30
2023-05-10T18:07:31.444Z,15.30
2023-05-10T18:09:58.432Z,15.30
2023-05-10T18:12:25.285Z,15.40
2023-05-10T18:14:52.032Z,15.50
2023-05-10T18:17:18.665Z,15.40
2023-05-10T18:19:45.300Z,15.40
2023-05-10T18:22:12.109Z,15.50
2023-05-10T18:24:39.902Z,15.60
2023-05-10T18:27:11.258Z,15.60
2023-05-10T18:29:37.951Z,15.60
2023-05-10T18:32:04.962Z,15.60
2023-05-10T18:34:31.622Z,15.60
2023-05-10T18:36:58.299Z,15.60
2023-05-10T18:39:25.042Z,15.60
2023-05-10T18:41:51.892Z,15.60
2023-05-10T18:44:18.904Z,15.60
2023-05-10T18:46:45.634Z,15.50
2023-05-10T18:49:12.276Z,15.60
2023-05-10T18:51:38.962Z,15.60
2023-05-10T18:54:05.697Z,15.60
2023-05-10T18:56:32.360Z,15.60
2023-05-10T18:58:59.045Z,15.50
2023-05-10T19:01:25.945Z,15.60
2023-05-10T19:03:52.614Z,15.70
2023-05-10T19:06:19.424Z,15.70
2023-05-10T19:08:46.123Z,15.80
2023-05-10T19:11:12.781Z,15.80
2023-05-10T19:13:39.413Z,15.80
2023-05-10T19:16:11.274Z,15.80
2023-05-10T19:18:39.298Z,15.80
2023-05-10T19:21:08.345Z,15.70
2023-05-10T19:23:35.355Z,15.70
2023-05-10T19:26:02.197Z,15.60
2023-05-10T19:28:28.901Z,15.60
2023-05-10T19:30:55.799Z,15.50
2023-05-10T19:33:22.840Z,15.50
2023-05-10T19:35:53.405Z,15.40
2023-05-10T19:38:24.576Z,15.30
2023-05-10T19:40:57.616Z,15.30
2023-05-10T19:43:25.394Z,15.40
2023-05-10T19:45:52.339Z,15.40
2023-05-10T19:48:19.238Z,15.50
2023-05-10T19:50:46.076Z,15.60
2023-05-10T19:53:12.699Z,15.70
2023-05-10T19:55:39.409Z,15.70
2023-05-10T19:58:06.154Z,15.80
2023-05-10T20:00:32.875Z,16.00
2023-05-10T20:02:59.635Z,16.00
2023-05-10T20:05:26.276Z,16.20
2023-05-10T20:07:53.128Z,16.30
2023-05-10T20:10:19.982Z,16.40
2023-05-10T20:12:52.201Z,16.40
2023-05-10T20:15:21.098Z,16.50
2023-05-10T20:17:49.002Z,16.50
2023-05-10T20:20:16.659Z,16.50
2023-05-10T20:22:47.647Z,16.50
2023-05-10T20:25:16.085Z,16.60
2023-05-10T20:27:43.095Z,16.60
2023-05-10T20:30:10.559Z,16.50
2023-05-10T20:32:37.944Z,16.70
2023-05-10T20:35:05.617Z,16.70
2023-05-10T20:37:32.329Z,16.70
2023-05-10T20:39:58.958Z,16.70
2023-05-10T20:42:28.699Z,16.70
2023-05-10T20:44:55.460Z,16.70
2023-05-10T20:47:25.300Z,16.70
2023-05-10T20:49:52.008Z,16.80
2023-05-10T20:52:18.831Z,16.80
2023-05-10T20:54:45.973Z,16.70
2023-05-10T20:57:12.896Z,16.80
2023-05-10T20:59:39.505Z,16.80
2023-05-10T21:02:06.716Z,16.70
2023-05-10T21:04:33.384Z,16.70
2023-05-10T21:07:00.135Z,16.70
2023-05-10T21:09:26.788Z,16.70
2023-05-10T21:11:53.552Z,16.70
2023-05-10T21:14:20.736Z,16.60
2023-05-10T21:16:47.457Z,16.60
2023-05-10T21:19:14.104Z,16.60
2023-05-10T21:21:40.846Z,16.70
2023-05-10T21:24:07.643Z,16.70
2023-05-10T21:26:34.629Z,16.70
2023-05-10T21:29:01.256Z,16.60
2023-05-10T21:31:30.520Z,16.60
2023-05-10T21:33:57.341Z,16.60
2023-05-10T21:36:24.937Z,16.60
2023-05-10T21:38:51.621Z,16.60
2023-05-10T21:41:18.368Z,16.50
2023-05-10T21:43:45.022Z,16.40
2023-05-10T21:46:13.376Z,16.20
2023-05-10T21:48:40.214Z,16.10
2023-05-10T21:51:07.096Z,16.00
2023-05-10T21:53:33.752Z,16.00
2023-05-10T21:56:00.403Z,16.00
2023-05-10T21:58:27.620Z,16.00
2023-05-10T22:00:54.543Z,15.90
2023-05-10T22:03:21.826Z,15.90
2023-05-10T22:05:48.527Z,15.90
2023-05-10T22:08:15.354Z,15.80
2023-05-10T22:10:42.116Z,15.70
2023-05-10T22:13:08.731Z,15.60
2023-05-10T22:15:36.612Z,15.50
2023-05-10T22:18:03.527Z,15.40
2023-05-10T22:20:30.210Z,15.40
2023-05-10T22:22:56.858Z,15.30
2023-05-10T22:25:23.485Z,15.30
2023-05-10T22:27:50.204Z,15.30
2023-05-10T22:30:17.482Z,15.30
2023-05-10T22:32:44.452Z,15.40
2023-05-10T22:35:11.479Z,15.50
2023-05-10T22:37:38.180Z,15.40
2023-05-10T22:40:05.889Z,15.40
2023-05-10T22:42:33.522Z,15.30
2023-05-10T22:45:00.470Z,15.30
2023-05-10T22:47:27.108Z,15.30
2023-05-10T22:49:55.132Z,15.10
2023-05-10T22:52:21.794Z,14.90
2023-05-10T22:54:48.478Z,14.80
2023-05-10T22:57:16.197Z,14.90
2023-05-10T22:59:43.285Z,14.90
2023-05-10T23:02:10.160Z,15.00
2023-05-10T23:04:37.073Z,15.00
2023-05-10T23:07:03.782Z,14.80
2023-05-10T23:09:30.395Z,14.60
2023-05-10T23:11:57.385Z,14.60
2023-05-10T23:14:24.141Z,14.70
2023-05-10T23:16:51.110Z,15.00
2023-05-10T23:19:17.836Z,15.00
2023-05-10T23:21:44.485Z,15.20
2023-05-10T23:24:11.582Z,15.40
2023-05-10T23:26:38.236Z,15.40
2023-05-10T23:29:04.885Z,15.40
2023-05-10T23:31:31.631Z,15.40
2023-05-10T23:33:58.310Z,15.50
2023-05-10T23:36:24.994Z,15.50
2023-05-10T23:38:51.596Z,15.50
2023-05-10T23:41:18.263Z,15.40
2023-05-10T23:44:59.709Z,15.30
2023-05-10T23:47:26.859Z,15.30
2023-05-10T23:49:53.485Z,15.30
2023-05-10T23:52:24.772Z,15.40
2023-05-10T23:54:52.021Z,15.40
2023-05-10T23:57:19.201Z,15.50
2023-05-10T23:59:46.469Z,15.60
